Currently 68°F in Simi Valley, California, USA
68°F
68°F / 68°F
16 mph NE
0.01"
Friday, December 15, 2017 12:28 AM PST

Simi Valley, California Climate Summary
Typical April Day

Normal High:    75.5°F (24.2°C)
Normal Low:    50.9°F (10.5°C)
Average:    62.2°F (16.8°C)

Hour    Temperature    Wind Speed    Humidity
12:00 AM    56°F (13°C)    3 mph    66%
1:00 AM    55°F (13°C)    3 mph    66%
2:00 AM    55°F (13°C)    3 mph    67%
3:00 AM    54°F (12°C)    3 mph    68%
4:00 AM    54°F (12°C)    3 mph    68%
5:00 AM    53°F (12°C)    3 mph    68%
6:00 AM    53°F (12°C)    3 mph    69%
7:00 AM    53°F (12°C)    3 mph    69%
8:00 AM    56°F (13°C)    3 mph    66%
9:00 AM    61°F (16°C)    4 mph    60%
10:00 AM    65°F (18°C)    5 mph    52%
11:00 AM    69°F (20°C)    5 mph    45%
12:00 PM    72°F (22°C)    6 mph    41%
1:00 PM    73°F (23°C)    7 mph    39%
2:00 PM    74°F (23°C)    7 mph    40%
3:00 PM    73°F (23°C)    8 mph    41%
4:00 PM    72°F (22°C)    8 mph    42%
5:00 PM    71°F (21°C)    7 mph    44%
6:00 PM    69°F (20°C)    6 mph    47%
7:00 PM    66°F (19°C)    5 mph    51%
8:00 PM    63°F (17°C)    3 mph    58%
9:00 PM    60°F (16°C)    3 mph    61%
10:00 PM    58°F (15°C)    3 mph    62%
11:00 PM    57°F (14°C)    3 mph    64%
 

The Simi Valley, California weather pages are a service of WeatherCurrents.
Copyright ©Fri Dec 15 00:29:14 PST 2017  WeatherCurrents. All rights reserved. - Submit questions and comments - Privacy Policy